createdAt,value
2022-07-27T00:02:03.044Z,84.60
2022-07-27T00:04:50.059Z,84.66
2022-07-27T00:07:37.693Z,84.40
2022-07-27T00:10:26.242Z,83.92
2022-07-27T00:13:13.748Z,84.71
2022-07-27T00:16:00.728Z,84.01
2022-07-27T00:18:47.697Z,83.87
2022-07-27T00:21:34.970Z,84.63
2022-07-27T00:24:31.217Z,84.78
2022-07-27T00:27:18.248Z,83.96
2022-07-27T00:30:05.324Z,84.56
2022-07-27T00:32:52.297Z,84.76
2022-07-27T00:35:39.254Z,85.01
2022-07-27T00:38:26.257Z,84.98
2022-07-27T00:41:13.278Z,84.72
2022-07-27T00:44:14.684Z,84.50
2022-07-27T00:47:01.680Z,84.50
2022-07-27T00:49:48.861Z,84.91
2022-07-27T00:52:37.445Z,84.57
2022-07-27T00:55:25.461Z,84.93
2022-07-27T00:58:12.578Z,85.14
2022-07-27T01:00:59.767Z,84.89
2022-07-27T01:03:47.959Z,85.52
2022-07-27T01:06:35.954Z,85.17
2022-07-27T01:09:21.694Z,85.07
2022-07-27T01:12:09.159Z,85.07
2022-07-27T01:14:58.586Z,85.52
2022-07-27T01:17:48.153Z,85.49
2022-07-27T01:20:35.013Z,85.68
2022-07-27T01:23:21.935Z,85.09
2022-07-27T01:26:08.834Z,85.13
2022-07-27T01:28:55.824Z,85.46
2022-07-27T01:31:42.880Z,85.72
2022-07-27T01:34:30.054Z,85.57
2022-07-27T01:37:16.952Z,85.27
2022-07-27T01:40:03.950Z,85.57
2022-07-27T01:42:51.041Z,85.63
2022-07-27T01:45:38.040Z,85.65
2022-07-27T01:48:25.101Z,85.22
2022-07-27T01:51:13.219Z,85.30
2022-07-27T01:54:00.353Z,85.84
2022-07-27T01:56:47.335Z,85.33
2022-07-27T01:59:35.625Z,86.07
2022-07-27T02:02:22.741Z,85.80
2022-07-27T02:05:09.774Z,85.95
2022-07-27T02:07:56.787Z,86.37
2022-07-27T02:10:44.225Z,86.02
2022-07-27T02:13:31.192Z,85.57
2022-07-27T02:16:39.034Z,85.77
2022-07-27T02:19:26.142Z,86.36
2022-07-27T02:22:13.047Z,85.79
2022-07-27T02:24:59.982Z,85.36
2022-07-27T02:27:47.112Z,85.34
2022-07-27T02:30:34.081Z,85.55
2022-07-27T02:33:21.119Z,85.69
2022-07-27T02:36:08.420Z,85.99
2022-07-27T02:38:55.312Z,85.97
2022-07-27T02:41:42.530Z,85.80
2022-07-27T02:44:29.431Z,85.83
2022-07-27T02:47:16.590Z,86.07
2022-07-27T02:50:03.709Z,86.06
2022-07-27T02:52:50.634Z,85.80
2022-07-27T02:55:37.585Z,86.60
2022-07-27T02:58:24.512Z,85.96
2022-07-27T03:01:12.147Z,86.15
2022-07-27T03:03:59.172Z,86.24
2022-07-27T03:06:46.096Z,86.05
2022-07-27T03:09:33.197Z,86.20
2022-07-27T03:12:21.135Z,85.98
2022-07-27T03:15:08.163Z,86.34
2022-07-27T03:17:55.229Z,85.67
2022-07-27T03:20:42.397Z,86.24
2022-07-27T03:23:29.322Z,86.38
2022-07-27T03:26:16.589Z,85.65
2022-07-27T03:29:03.642Z,86.47
2022-07-27T03:31:50.662Z,86.14
2022-07-27T03:34:37.571Z,86.36
2022-07-27T03:37:24.625Z,86.07
2022-07-27T03:40:11.500Z,85.66
2022-07-27T03:42:59.425Z,85.90
2022-07-27T03:45:47.122Z,85.85
2022-07-27T03:48:34.204Z,86.05
2022-07-27T03:51:21.370Z,86.30
2022-07-27T03:54:08.498Z,85.69
2022-07-27T03:56:55.720Z,85.84
2022-07-27T03:59:42.880Z,85.27
2022-07-27T04:02:30.024Z,85.82
2022-07-27T04:05:17.257Z,85.86
2022-07-27T04:08:04.365Z,85.31
2022-07-27T04:10:51.429Z,85.31
2022-07-27T04:13:38.572Z,85.00
2022-07-27T04:16:25.609Z,85.99
2022-07-27T04:19:13.087Z,85.16
2022-07-27T04:22:00.617Z,84.93
2022-07-27T04:24:47.552Z,84.62
2022-07-27T04:27:34.714Z,84.68
2022-07-27T04:30:21.662Z,84.54
2022-07-27T04:33:08.662Z,84.27
2022-07-27T04:35:55.667Z,84.60
2022-07-27T04:38:42.787Z,84.22
2022-07-27T04:41:30.567Z,84.66
2022-07-27T04:44:18.363Z,84.17
2022-07-27T04:47:05.237Z,84.27
2022-07-27T04:49:52.394Z,84.46
2022-07-27T04:52:39.446Z,84.07
2022-07-27T04:55:26.718Z,83.52
2022-07-27T04:58:13.600Z,83.85
2022-07-27T05:01:00.769Z,83.62
2022-07-27T05:03:47.728Z,83.77
2022-07-27T05:06:34.974Z,83.74
2022-07-27T05:09:22.407Z,83.25
2022-07-27T05:12:09.791Z,83.30
2022-07-27T05:14:56.620Z,82.46
2022-07-27T05:17:43.913Z,82.19
2022-07-27T05:20:32.150Z,81.83
2022-07-27T05:23:19.141Z,82.17
2022-07-27T05:26:06.050Z,81.40
2022-07-27T05:28:53.125Z,81.30
2022-07-27T05:31:40.338Z,81.37
2022-07-27T05:34:27.491Z,81.51
2022-07-27T05:37:14.825Z,81.65
2022-07-27T05:40:01.794Z,81.10
2022-07-27T05:42:48.794Z,81.50
2022-07-27T05:45:35.905Z,80.74
2022-07-27T05:48:23.138Z,80.30
2022-07-27T05:51:09.986Z,80.23
2022-07-27T05:53:57.275Z,79.73
2022-07-27T05:56:44.239Z,79.71
2022-07-27T05:59:31.418Z,79.28
2022-07-27T06:02:19.249Z,78.92
2022-07-27T06:05:07.676Z,78.55
2022-07-27T06:07:54.849Z,78.49
2022-07-27T06:10:41.849Z,77.91
2022-07-27T06:13:30.877Z,78.14
2022-07-27T06:16:17.964Z,77.22
2022-07-27T06:19:05.082Z,77.15
2022-07-27T06:21:53.928Z,77.32
2022-07-27T06:24:41.594Z,77.00
2022-07-27T06:27:29.732Z,76.55
2022-07-27T06:30:16.961Z,76.54
2022-07-27T06:33:04.394Z,76.04
2022-07-27T06:35:52.176Z,75.68
2022-07-27T06:38:40.696Z,75.95
2022-07-27T06:41:27.638Z,75.95
2022-07-27T06:44:14.639Z,75.12
2022-07-27T06:47:02.203Z,75.05
2022-07-27T06:49:49.170Z,74.75
2022-07-27T06:52:36.370Z,74.49
2022-07-27T06:55:23.513Z,74.38
2022-07-27T06:58:10.623Z,73.91
2022-07-27T07:00:57.720Z,74.32
2022-07-27T07:03:44.957Z,73.71
2022-07-27T07:06:32.085Z,73.80
2022-07-27T07:09:19.258Z,73.63
2022-07-27T07:12:06.166Z,73.72
2022-07-27T07:14:53.253Z,74.02
2022-07-27T07:17:40.510Z,73.38
2022-07-27T07:20:28.576Z,73.39
2022-07-27T07:23:15.895Z,73.09
2022-07-27T07:26:03.035Z,72.90
2022-07-27T07:28:49.966Z,73.05
2022-07-27T07:31:37.157Z,73.48
2022-07-27T07:34:24.744Z,73.50
2022-07-27T07:37:11.760Z,74.71
2022-07-27T07:40:08.216Z,75.21
2022-07-27T07:43:20.031Z,74.81
2022-07-27T07:46:08.945Z,75.46
2022-07-27T07:48:56.149Z,74.95
2022-07-27T07:51:43.147Z,75.36
2022-07-27T07:54:10.869Z,74.79
2022-07-27T07:56:37.981Z,74.42
2022-07-27T07:59:05.104Z,73.82
2022-07-27T08:01:32.373Z,73.83
2022-07-27T08:03:59.618Z,73.66
2022-07-27T08:06:46.785Z,73.18
2022-07-27T08:09:33.874Z,72.82
2022-07-27T08:12:23.742Z,72.81
2022-07-27T08:15:10.869Z,72.42
2022-07-27T08:17:57.882Z,72.46
2022-07-27T08:20:45.064Z,72.49
2022-07-27T08:23:32.086Z,71.48
2022-07-27T08:26:19.110Z,71.26
2022-07-27T08:29:13.253Z,71.53
2022-07-27T08:31:56.384Z,71.00
2022-07-27T08:34:24.133Z,70.91
2022-07-27T08:36:51.076Z,70.53
2022-07-27T08:39:41.632Z,70.09
2022-07-27T08:42:09.644Z,70.07
2022-07-27T08:44:41.324Z,69.33
2022-07-27T08:47:10.619Z,69.12
2022-07-27T08:49:43.645Z,69.41
2022-07-27T08:52:12.607Z,68.45
2022-07-27T08:54:40.998Z,68.54
2022-07-27T08:57:09.586Z,68.48
2022-07-27T08:59:37.165Z,68.79
2022-07-27T09:02:09.167Z,68.24
2022-07-27T09:04:36.225Z,68.34
2022-07-27T09:07:03.485Z,68.25
2022-07-27T09:09:44.877Z,68.72
2022-07-27T09:12:12.367Z,68.19
2022-07-27T09:14:41.814Z,68.18
2022-07-27T09:20:19.524Z,67.38
2022-07-27T09:22:55.332Z,67.05
2022-07-27T09:25:52.253Z,67.19
2022-07-27T09:28:12.453Z,66.44
2022-07-27T09:30:43.798Z,66.66
2022-07-27T09:33:11.270Z,66.67
2022-07-27T09:35:38.465Z,66.06
2022-07-27T09:38:20.796Z,66.91
2022-07-27T09:40:51.539Z,66.35
2022-07-27T09:44:12.376Z,66.33
2022-07-27T09:46:10.342Z,66.15
2022-07-27T09:48:37.708Z,66.05
2022-07-27T09:51:55.923Z,65.17
2022-07-27T09:54:17.175Z,65.43
2022-07-27T09:57:04.711Z,64.88
2022-07-27T09:59:51.634Z,65.00
2022-07-27T10:02:38.560Z,64.42
2022-07-27T10:05:26.423Z,64.15
2022-07-27T10:08:14.899Z,64.47
2022-07-27T10:11:01.950Z,64.72
2022-07-27T10:13:51.743Z,65.04
2022-07-27T10:16:50.993Z,65.02
2022-07-27T10:19:40.772Z,64.64
2022-07-27T10:22:27.839Z,65.04
2022-07-27T10:25:20.573Z,65.19
2022-07-27T10:28:27.294Z,65.23
2022-07-27T10:31:37.517Z,65.75
2022-07-27T10:34:27.721Z,65.03
2022-07-27T10:37:14.601Z,65.04
2022-07-27T10:40:05.898Z,64.21
2022-07-27T10:42:54.581Z,64.57
2022-07-27T10:45:55.356Z,64.30
2022-07-27T10:49:02.550Z,64.29
2022-07-27T10:51:55.698Z,63.95
2022-07-27T10:55:02.892Z,63.40
2022-07-27T10:57:49.810Z,62.85
2022-07-27T11:00:36.758Z,62.91
2022-07-27T11:03:25.510Z,62.24
2022-07-27T11:06:47.834Z,62.25
2022-07-27T11:12:48.418Z,62.06
2022-07-27T11:15:35.461Z,61.79
2022-07-27T11:18:22.509Z,61.26
2022-07-27T11:21:09.678Z,60.84
2022-07-27T11:23:56.534Z,61.04
2022-07-27T11:26:45.929Z,60.63
2022-07-27T11:29:34.319Z,59.89
2022-07-27T11:32:27.050Z,59.41
2022-07-27T11:35:19.512Z,59.40
2022-07-27T11:38:05.279Z,59.60
2022-07-27T11:40:59.763Z,59.13
2022-07-27T11:43:45.201Z,58.66
2022-07-27T11:46:24.788Z,58.93
2022-07-27T11:49:07.158Z,58.44
2022-07-27T11:51:54.753Z,57.79
2022-07-27T11:54:27.265Z,58.17
2022-07-27T11:56:57.328Z,57.92
2022-07-27T11:59:29.856Z,57.65
2022-07-27T12:01:59.822Z,57.37
2022-07-27T12:04:52.260Z,56.75
2022-07-27T12:07:40.771Z,57.14
2022-07-27T12:10:28.567Z,56.49
2022-07-27T12:13:15.539Z,55.89
2022-07-27T12:15:47.114Z,55.83
2022-07-27T12:18:34.121Z,55.21
2022-07-27T12:21:21.063Z,55.08
2022-07-27T12:24:14.007Z,54.94
2022-07-27T12:26:48.973Z,54.33
2022-07-27T12:29:36.162Z,54.62
2022-07-27T12:32:24.246Z,53.92
2022-07-27T12:35:11.834Z,53.76
2022-07-27T12:37:58.811Z,53.97
2022-07-27T12:40:46.147Z,54.05
2022-07-27T12:43:37.192Z,53.61
2022-07-27T12:46:32.739Z,53.55
2022-07-27T12:49:20.044Z,53.33
2022-07-27T12:52:07.673Z,53.16
2022-07-27T12:54:54.984Z,52.78
2022-07-27T12:57:55.092Z,53.12
2022-07-27T13:00:45.947Z,52.74
2022-07-27T13:03:33.301Z,52.79
2022-07-27T13:06:24.077Z,52.71
2022-07-27T13:09:11.415Z,52.61
2022-07-27T13:12:00.291Z,52.37
2022-07-27T13:14:47.434Z,51.95
2022-07-27T13:17:34.329Z,51.82
2022-07-27T13:20:22.079Z,51.19
2022-07-27T13:23:09.153Z,51.28
2022-07-27T13:25:56.122Z,50.89
2022-07-27T13:28:42.990Z,50.75
2022-07-27T13:31:30.197Z,50.46
2022-07-27T13:34:17.194Z,50.48
2022-07-27T13:36:44.412Z,50.53
2022-07-27T13:39:11.995Z,50.04
2022-07-27T13:41:40.125Z,49.97
2022-07-27T13:44:10.379Z,49.59
2022-07-27T13:46:46.669Z,49.74
2022-07-27T13:49:15.484Z,49.49
2022-07-27T13:51:43.336Z,49.57
2022-07-27T13:54:11.585Z,49.79
2022-07-27T13:56:39.354Z,50.16
2022-07-27T13:59:06.534Z,50.52
2022-07-27T14:01:35.251Z,50.44
2022-07-27T14:04:05.333Z,50.14
2022-07-27T14:06:34.455Z,49.92
2022-07-27T14:09:22.328Z,50.05
2022-07-27T14:12:09.286Z,50.18
2022-07-27T14:14:56.300Z,49.50
2022-07-27T14:17:43.269Z,49.65
2022-07-27T14:20:30.938Z,49.41
2022-07-27T14:23:13.924Z,49.12
2022-07-27T14:25:41.198Z,48.30
2022-07-27T14:28:08.209Z,48.82
2022-07-27T14:30:35.192Z,49.01
2022-07-27T14:33:03.226Z,49.10
2022-07-27T14:35:30.437Z,49.18
2022-07-27T14:38:00.161Z,49.01
2022-07-27T14:40:28.234Z,49.05
2022-07-27T14:42:55.268Z,49.44
2022-07-27T14:45:22.582Z,49.04
2022-07-27T14:47:49.667Z,49.30
2022-07-27T14:50:16.962Z,49.50
2022-07-27T14:53:05.877Z,49.75
2022-07-27T14:55:52.969Z,49.17
2022-07-27T14:58:20.043Z,49.03
2022-07-27T15:00:47.187Z,48.91
2022-07-27T15:03:15.155Z,48.54
2022-07-27T15:05:50.427Z,48.67
2022-07-27T15:08:20.833Z,48.59
2022-07-27T15:10:48.908Z,48.70
2022-07-27T15:13:17.140Z,48.71
2022-07-27T15:15:45.264Z,48.52
2022-07-27T15:18:12.246Z,48.72
2022-07-27T15:20:39.211Z,48.93
2022-07-27T15:23:06.709Z,49.17
2022-07-27T15:25:34.019Z,48.41
2022-07-27T15:28:00.997Z,48.12
2022-07-27T15:30:28.173Z,48.07
2022-07-27T15:32:55.245Z,47.99
2022-07-27T15:35:22.464Z,47.71
2022-07-27T15:37:54.379Z,47.13
2022-07-27T15:40:38.574Z,47.09
2022-07-27T15:43:07.442Z,47.53
2022-07-27T15:45:38.718Z,47.32
2022-07-27T15:48:08.402Z,47.12
2022-07-27T15:50:40.993Z,47.28
2022-07-27T15:53:08.814Z,46.74
2022-07-27T15:55:37.681Z,46.47
2022-07-27T15:58:06.220Z,46.26
2022-07-27T16:00:39.436Z,46.33
2022-07-27T16:03:07.930Z,46.52
2022-07-27T16:05:35.172Z,46.34
2022-07-27T16:08:02.316Z,46.48
2022-07-27T16:10:49.357Z,46.29
2022-07-27T16:13:36.669Z,46.36
2022-07-27T16:16:24.000Z,45.80
2022-07-27T16:18:52.601Z,45.54
2022-07-27T16:21:21.451Z,45.39
2022-07-27T16:23:49.682Z,44.87
2022-07-27T16:26:16.725Z,44.45
2022-07-27T16:28:46.694Z,44.62
2022-07-27T16:31:16.070Z,44.15
2022-07-27T16:33:44.555Z,43.58
2022-07-27T16:36:12.354Z,43.39
2022-07-27T16:38:50.128Z,43.18
2022-07-27T16:41:22.441Z,43.28
2022-07-27T16:43:50.094Z,43.72
2022-07-27T16:46:18.058Z,43.83
2022-07-27T16:48:45.351Z,44.01
2022-07-27T16:51:13.983Z,43.60
2022-07-27T16:53:43.900Z,44.00
2022-07-27T16:56:12.038Z,44.19
2022-07-27T16:58:39.476Z,43.29
2022-07-27T17:01:06.887Z,43.70
2022-07-27T17:03:34.438Z,43.26
2022-07-27T17:06:06.118Z,42.94
2022-07-27T17:08:34.559Z,43.37
2022-07-27T17:11:02.333Z,43.02
2022-07-27T17:13:33.990Z,43.51
2022-07-27T17:16:06.595Z,43.06
2022-07-27T17:18:39.840Z,43.04
2022-07-27T17:21:12.523Z,42.92
2022-07-27T17:23:42.294Z,43.01
2022-07-27T17:26:10.440Z,42.63
2022-07-27T17:28:40.169Z,42.71
2022-07-27T17:31:10.200Z,42.39
2022-07-27T17:33:38.647Z,42.03
2022-07-27T17:36:09.698Z,42.13
2022-07-27T17:38:45.433Z,42.13
2022-07-27T17:41:13.667Z,42.31
2022-07-27T17:43:41.048Z,42.35
2022-07-27T17:46:10.307Z,42.24
2022-07-27T17:48:38.423Z,42.08
2022-07-27T17:51:07.563Z,42.42
2022-07-27T17:53:34.798Z,42.33
2022-07-27T17:56:02.869Z,42.57
2022-07-27T17:58:30.552Z,42.18
2022-07-27T18:00:57.790Z,41.26
2022-07-27T18:03:24.687Z,41.09
2022-07-27T18:05:51.714Z,41.12
2022-07-27T18:08:18.935Z,40.82
2022-07-27T18:10:46.178Z,40.79
2022-07-27T18:13:13.250Z,40.99
2022-07-27T18:15:50.484Z,41.58
2022-07-27T18:18:22.776Z,41.68
2022-07-27T18:20:52.966Z,41.71
2022-07-27T18:23:20.957Z,42.25
2022-07-27T18:25:48.161Z,42.55
2022-07-27T18:28:16.435Z,42.55
2022-07-27T18:30:46.053Z,43.00
2022-07-27T18:33:14.571Z,42.84
2022-07-27T18:35:45.510Z,43.42
2022-07-27T18:38:13.418Z,43.46
2022-07-27T18:40:43.013Z,43.94
2022-07-27T18:43:10.883Z,43.64
2022-07-27T18:45:39.329Z,43.65
2022-07-27T18:48:10.370Z,43.98
2022-07-27T18:50:39.978Z,44.72
2022-07-27T18:53:08.708Z,44.60
2022-07-27T18:55:36.769Z,44.50
2022-07-27T18:58:03.934Z,44.94
2022-07-27T19:00:31.893Z,45.35
2022-07-27T19:02:59.557Z,45.47
2022-07-27T19:05:32.329Z,44.87
2022-07-27T19:08:13.100Z,45.27
2022-07-27T19:10:42.472Z,45.46
2022-07-27T19:13:10.592Z,45.70
2022-07-27T19:15:37.702Z,45.52
2022-07-27T19:18:06.001Z,46.06
2022-07-27T19:20:33.215Z,45.68
2022-07-27T19:23:00.836Z,45.68
2022-07-27T19:25:30.344Z,45.93
2022-07-27T19:27:57.704Z,46.35
2022-07-27T19:30:24.769Z,46.48
2022-07-27T19:32:51.965Z,45.98
2022-07-27T19:35:18.954Z,46.73
2022-07-27T19:37:45.865Z,46.48
2022-07-27T19:43:00.159Z,46.90
2022-07-27T19:45:27.141Z,46.95
2022-07-27T19:47:54.036Z,47.15
2022-07-27T19:50:21.242Z,47.18
2022-07-27T19:52:48.450Z,47.47
2022-07-27T19:55:15.587Z,46.70
2022-07-27T19:57:42.714Z,47.08
2022-07-27T20:00:11.222Z,46.89
2022-07-27T20:02:38.317Z,46.96
2022-07-27T20:05:05.773Z,47.29
2022-07-27T20:07:32.957Z,47.68
2022-07-27T20:10:00.169Z,47.42
2022-07-27T20:12:27.314Z,48.09
2022-07-27T20:14:54.360Z,47.45
2022-07-27T20:17:21.324Z,47.70
2022-07-27T20:19:48.341Z,48.00
2022-07-27T20:22:15.514Z,48.49
2022-07-27T20:24:42.581Z,48.06
2022-07-27T20:27:09.554Z,48.68
2022-07-27T20:29:38.940Z,48.88
2022-07-27T20:32:07.581Z,48.92
2022-07-27T20:34:34.588Z,48.66
2022-07-27T20:37:01.627Z,49.42
2022-07-27T20:39:28.495Z,49.31
2022-07-27T20:41:55.456Z,48.97
2022-07-27T20:44:42.394Z,49.82
2022-07-27T20:47:09.431Z,50.09
2022-07-27T20:49:36.382Z,49.98
2022-07-27T20:52:03.780Z,50.44
2022-07-27T20:54:32.405Z,50.58
2022-07-27T20:56:59.324Z,50.36
2022-07-27T20:59:26.400Z,50.59
2022-07-27T21:01:53.671Z,50.81
2022-07-27T21:04:22.060Z,51.40
2022-07-27T21:06:50.962Z,51.29
2022-07-27T21:09:18.654Z,51.20
2022-07-27T21:11:45.947Z,51.44
2022-07-27T21:14:13.206Z,52.03
2022-07-27T21:16:41.352Z,52.37
2022-07-27T21:19:09.671Z,51.85
2022-07-27T21:21:37.058Z,52.38
2022-07-27T21:24:17.709Z,52.53
2022-07-27T21:26:52.688Z,52.65
2022-07-27T21:29:20.833Z,53.24
2022-07-27T21:31:49.427Z,53.13
2022-07-27T21:34:19.768Z,53.35
2022-07-27T21:36:47.588Z,53.11
2022-07-27T21:39:14.693Z,53.08
2022-07-27T21:41:41.932Z,53.22
2022-07-27T21:44:08.933Z,53.86
2022-07-27T21:46:36.214Z,53.57
2022-07-27T21:49:04.126Z,53.96
2022-07-27T21:51:31.488Z,53.48
2022-07-27T21:53:58.545Z,53.75
2022-07-27T21:56:25.639Z,53.73
2022-07-27T21:58:52.868Z,53.82
2022-07-27T22:01:20.104Z,54.14
2022-07-27T22:03:47.371Z,53.89
2022-07-27T22:06:14.510Z,54.02
2022-07-27T22:08:41.552Z,54.37
2022-07-27T22:11:09.381Z,54.36
2022-07-27T22:13:36.522Z,54.24
2022-07-27T22:16:04.450Z,54.22
2022-07-27T22:18:31.832Z,54.78
2022-07-27T22:20:59.163Z,54.56
2022-07-27T22:23:26.234Z,54.32
2022-07-27T22:25:53.990Z,54.70
2022-07-27T22:28:25.480Z,55.15
2022-07-27T22:31:16.544Z,54.74
2022-07-27T22:33:44.459Z,54.98
2022-07-27T22:36:12.313Z,55.19
2022-07-27T22:38:39.680Z,55.05
2022-07-27T22:41:06.895Z,55.19
2022-07-27T22:43:34.451Z,55.32
2022-07-27T22:46:03.742Z,55.71
2022-07-27T22:48:31.038Z,55.79
2022-07-27T22:50:58.061Z,55.76
2022-07-27T22:53:24.942Z,55.63
2022-07-27T22:55:52.163Z,55.86
2022-07-27T22:58:19.233Z,55.40
2022-07-27T23:00:46.313Z,55.72
2022-07-27T23:03:13.455Z,56.12
2022-07-27T23:05:40.535Z,55.74
2022-07-27T23:08:07.641Z,56.13
2022-07-27T23:10:46.665Z,56.18
2022-07-27T23:13:15.325Z,56.65
2022-07-27T23:15:43.444Z,55.92
2022-07-27T23:18:11.441Z,56.23
2022-07-27T23:20:38.786Z,56.22
2022-07-27T23:23:15.369Z,56.79
2022-07-27T23:25:47.262Z,56.68
2022-07-27T23:28:14.657Z,56.29
2022-07-27T23:30:41.709Z,56.39
2022-07-27T23:33:08.804Z,56.32
2022-07-27T23:35:35.966Z,56.25
2022-07-27T23:38:02.973Z,56.51
2022-07-27T23:40:30.140Z,56.73
2022-07-27T23:42:57.115Z,56.44
2022-07-27T23:45:24.136Z,56.68
2022-07-27T23:47:51.131Z,56.61
2022-07-27T23:50:18.110Z,56.92
2022-07-27T23:53:05.071Z,56.77
2022-07-27T23:55:56.028Z,56.59
2022-07-27T23:58:42.997Z,57.31
